sensor_id;sensor_type;location;lat;lon;timestamp;pressure;altitude;pressure_sealevel;temperature;humidity
65685;BME280;52405;50.844;-1.062;2023-03-15T00:01:19;101616.13;;;6.68;57.82
65685;BME280;52405;50.844;-1.062;2023-03-15T00:03:46;101622.88;;;6.66;58.57
65685;BME280;52405;50.844;-1.062;2023-03-15T00:06:14;101616.41;;;6.59;58.18
65685;BME280;52405;50.844;-1.062;2023-03-15T00:08:40;101632.13;;;6.62;57.88
65685;BME280;52405;50.844;-1.062;2023-03-15T00:11:13;101639.75;;;6.61;58.05
65685;BME280;52405;50.844;-1.062;2023-03-15T00:13:39;101658.59;;;6.60;59.04
65685;BME280;52405;50.844;-1.062;2023-03-15T00:16:05;101661.88;;;6.57;58.52
65685;BME280;52405;50.844;-1.062;2023-03-15T00:18:30;101650.06;;;6.47;58.92
65685;BME280;52405;50.844;-1.062;2023-03-15T00:20:58;101663.25;;;6.52;58.23
65685;BME280;52405;50.844;-1.062;2023-03-15T00:23:27;101661.50;;;6.51;59.05
65685;BME280;52405;50.844;-1.062;2023-03-15T00:25:54;101646.16;;;6.41;58.97
65685;BME280;52405;50.844;-1.062;2023-03-15T00:28:19;101651.22;;;6.39;59.29
65685;BME280;52405;50.844;-1.062;2023-03-15T00:30:45;101666.22;;;6.45;58.99
65685;BME280;52405;50.844;-1.062;2023-03-15T00:33:15;101678.13;;;6.43;59.11
65685;BME280;52405;50.844;-1.062;2023-03-15T00:35:42;101670.75;;;6.35;59.68
65685;BME280;52405;50.844;-1.062;2023-03-15T00:38:08;101677.81;;;6.38;60.04
65685;BME280;52405;50.844;-1.062;2023-03-15T00:40:35;101690.50;;;6.35;59.39
65685;BME280;52405;50.844;-1.062;2023-03-15T00:43:01;101672.72;;;6.26;59.30
65685;BME280;52405;50.844;-1.062;2023-03-15T00:45:29;101659.06;;;6.15;60.11
65685;BME280;52405;50.844;-1.062;2023-03-15T00:47:54;101687.41;;;6.27;60.68
65685;BME280;52405;50.844;-1.062;2023-03-15T00:50:23;101675.19;;;6.25;60.84
65685;BME280;52405;50.844;-1.062;2023-03-15T00:52:49;101655.19;;;6.09;60.57
65685;BME280;52405;50.844;-1.062;2023-03-15T00:55:18;101676.13;;;6.13;60.56
65685;BME280;52405;50.844;-1.062;2023-03-15T00:57:45;101629.16;;;5.80;60.92
65685;BME280;52405;50.844;-1.062;2023-03-15T01:00:17;101691.41;;;6.10;61.20
65685;BME280;52405;50.844;-1.062;2023-03-15T01:02:45;101688.41;;;6.04;60.56
65685;BME280;52405;50.844;-1.062;2023-03-15T01:05:13;101694.34;;;6.03;60.68
65685;BME280;52405;50.844;-1.062;2023-03-15T01:07:39;101675.53;;;5.92;61.05
65685;BME280;52405;50.844;-1.062;2023-03-15T01:10:05;101685.50;;;6.00;60.65
65685;BME280;52405;50.844;-1.062;2023-03-15T01:12:33;101662.47;;;5.77;61.77
65685;BME280;52405;50.844;-1.062;2023-03-15T01:15:03;101681.94;;;5.86;61.58
65685;BME280;52405;50.844;-1.062;2023-03-15T01:17:30;101671.56;;;5.72;62.07
65685;BME280;52405;50.844;-1.062;2023-03-15T01:20:01;101699.97;;;5.86;61.51
65685;BME280;52405;50.844;-1.062;2023-03-15T01:22:28;101681.81;;;5.84;62.43
65685;BME280;52405;50.844;-1.062;2023-03-15T01:24:53;101659.00;;;5.65;61.25
65685;BME280;52405;50.844;-1.062;2023-03-15T01:27:19;101690.94;;;5.79;62.22
65685;BME280;52405;50.844;-1.062;2023-03-15T01:29:44;101704.72;;;5.79;62.20
65685;BME280;52405;50.844;-1.062;2023-03-15T01:32:10;101668.44;;;5.53;61.92
65685;BME280;52405;50.844;-1.062;2023-03-15T01:34:41;101704.72;;;5.68;62.82
65685;BME280;52405;50.844;-1.062;2023-03-15T01:37:08;101698.44;;;5.64;61.93
65685;BME280;52405;50.844;-1.062;2023-03-15T01:39:33;101690.06;;;5.55;63.27
65685;BME280;52405;50.844;-1.062;2023-03-15T01:41:59;101622.84;;;5.15;63.15
65685;BME280;52405;50.844;-1.062;2023-03-15T01:44:53;101703.41;;;5.61;62.81
65685;BME280;52405;50.844;-1.062;2023-03-15T01:47:19;101716.41;;;5.63;62.51
65685;BME280;52405;50.844;-1.062;2023-03-15T01:49:50;101724.91;;;5.62;62.86
65685;BME280;52405;50.844;-1.062;2023-03-15T01:52:20;101725.69;;;5.60;62.05
65685;BME280;52405;50.844;-1.062;2023-03-15T01:54:56;101735.22;;;5.62;63.22
65685;BME280;52405;50.844;-1.062;2023-03-15T01:57:27;101737.69;;;5.60;62.22
65685;BME280;52405;50.844;-1.062;2023-03-15T02:00:00;101727.94;;;5.56;62.35
65685;BME280;52405;50.844;-1.062;2023-03-15T02:02:32;101730.63;;;5.57;63.04
65685;BME280;52405;50.844;-1.062;2023-03-15T02:05:07;101728.50;;;5.52;63.44
65685;BME280;52405;50.844;-1.062;2023-03-15T02:07:36;101739.81;;;5.54;63.09
65685;BME280;52405;50.844;-1.062;2023-03-15T02:10:11;101723.59;;;5.43;63.26
65685;BME280;52405;50.844;-1.062;2023-03-15T02:12:45;101725.28;;;5.43;62.50
65685;BME280;52405;50.844;-1.062;2023-03-15T02:15:12;101739.03;;;5.43;62.65
65685;BME280;52405;50.844;-1.062;2023-03-15T02:17:40;101747.13;;;5.48;63.64
65685;BME280;52405;50.844;-1.062;2023-03-15T02:22:59;101746.34;;;5.37;64.13
65685;BME280;52405;50.844;-1.062;2023-03-15T02:25:35;101743.53;;;5.34;63.50
65685;BME280;52405;50.844;-1.062;2023-03-15T02:28:05;101739.38;;;5.36;63.50
65685;BME280;52405;50.844;-1.062;2023-03-15T02:30:32;101711.84;;;5.23;63.41
65685;BME280;52405;50.844;-1.062;2023-03-15T02:33:00;101733.78;;;5.30;64.08
65685;BME280;52405;50.844;-1.062;2023-03-15T02:35:30;101723.13;;;5.25;64.15
65685;BME280;52405;50.844;-1.062;2023-03-15T02:37:57;101718.00;;;5.13;64.03
65685;BME280;52405;50.844;-1.062;2023-03-15T02:40:27;101741.50;;;5.18;63.67
65685;BME280;52405;50.844;-1.062;2023-03-15T02:42:56;101750.91;;;5.17;64.31
65685;BME280;52405;50.844;-1.062;2023-03-15T02:45:26;101723.94;;;5.00;64.23
65685;BME280;52405;50.844;-1.062;2023-03-15T02:47:53;101741.16;;;5.01;63.93
65685;BME280;52405;50.844;-1.062;2023-03-15T02:50:19;101740.81;;;4.97;63.64
65685;BME280;52405;50.844;-1.062;2023-03-15T02:52:44;101746.63;;;4.94;64.91
65685;BME280;52405;50.844;-1.062;2023-03-15T02:55:15;101768.94;;;5.06;64.09
65685;BME280;52405;50.844;-1.062;2023-03-15T02:57:43;101757.50;;;5.02;64.34
65685;BME280;52405;50.844;-1.062;2023-03-15T03:00:12;101763.44;;;5.01;63.82
65685;BME280;52405;50.844;-1.062;2023-03-15T03:02:43;101763.66;;;5.04;64.80
65685;BME280;52405;50.844;-1.062;2023-03-15T03:05:12;101753.94;;;5.00;65.34
65685;BME280;52405;50.844;-1.062;2023-03-15T03:07:41;101741.16;;;5.01;65.11
65685;BME280;52405;50.844;-1.062;2023-03-15T03:10:14;101746.53;;;5.05;65.05
65685;BME280;52405;50.844;-1.062;2023-03-15T03:12:42;101743.50;;;4.98;65.08
65685;BME280;52405;50.844;-1.062;2023-03-15T03:15:10;101706.44;;;4.73;64.18
65685;BME280;52405;50.844;-1.062;2023-03-15T03:17:38;101748.66;;;4.98;64.91
65685;BME280;52405;50.844;-1.062;2023-03-15T03:20:11;101732.53;;;4.89;65.14
65685;BME280;52405;50.844;-1.062;2023-03-15T03:22:38;101755.38;;;4.96;64.26
65685;BME280;52405;50.844;-1.062;2023-03-15T03:25:06;101754.34;;;4.94;65.49
65685;BME280;52405;50.844;-1.062;2023-03-15T03:27:34;101757.34;;;4.89;65.25
65685;BME280;52405;50.844;-1.062;2023-03-15T03:30:09;101694.63;;;4.53;64.58
65685;BME280;52405;50.844;-1.062;2023-03-15T03:32:35;101750.88;;;4.82;65.03
65685;BME280;52405;50.844;-1.062;2023-03-15T03:35:01;101772.16;;;4.91;65.46
65685;BME280;52405;50.844;-1.062;2023-03-15T03:37:26;101716.34;;;4.56;64.88
65685;BME280;52405;50.844;-1.062;2023-03-15T03:39:51;101779.50;;;4.87;65.43
65685;BME280;52405;50.844;-1.062;2023-03-15T03:42:19;101733.78;;;4.60;65.26
65685;BME280;52405;50.844;-1.062;2023-03-15T03:44:44;101751.50;;;4.68;65.60
65685;BME280;52405;50.844;-1.062;2023-03-15T03:47:12;101786.78;;;4.80;65.69
65685;BME280;52405;50.844;-1.062;2023-03-15T03:49:40;101797.75;;;4.78;64.89
65685;BME280;52405;50.844;-1.062;2023-03-15T03:52:08;101783.50;;;4.71;66.26
65685;BME280;52405;50.844;-1.062;2023-03-15T03:54:33;101781.81;;;4.72;65.90
65685;BME280;52405;50.844;-1.062;2023-03-15T03:56:59;101757.63;;;4.58;65.36
65685;BME280;52405;50.844;-1.062;2023-03-15T03:59:26;101776.22;;;4.66;65.19
65685;BME280;52405;50.844;-1.062;2023-03-15T04:01:55;101784.16;;;4.69;65.44
65685;BME280;52405;50.844;-1.062;2023-03-15T04:04:20;101786.38;;;4.64;65.46
65685;BME280;52405;50.844;-1.062;2023-03-15T04:06:45;101771.63;;;4.61;64.94
65685;BME280;52405;50.844;-1.062;2023-03-15T04:09:15;101785.97;;;4.70;66.22
65685;BME280;52405;50.844;-1.062;2023-03-15T04:11:41;101771.84;;;4.64;65.72
65685;BME280;52405;50.844;-1.062;2023-03-15T04:14:10;101781.91;;;4.61;65.37
65685;BME280;52405;50.844;-1.062;2023-03-15T04:16:37;101779.81;;;4.68;65.39
65685;BME280;52405;50.844;-1.062;2023-03-15T04:19:03;101778.78;;;4.66;65.72
65685;BME280;52405;50.844;-1.062;2023-03-15T04:21:28;101771.38;;;4.58;66.65
65685;BME280;52405;50.844;-1.062;2023-03-15T04:24:00;101779.22;;;4.60;65.48
65685;BME280;52405;50.844;-1.062;2023-03-15T04:26:29;101731.69;;;4.33;66.33
65685;BME280;52405;50.844;-1.062;2023-03-15T04:28:56;101779.78;;;4.56;66.36
65685;BME280;52405;50.844;-1.062;2023-03-15T04:31:23;101769.66;;;4.47;65.59
65685;BME280;52405;50.844;-1.062;2023-03-15T04:33:52;101751.13;;;4.29;66.03
65685;BME280;52405;50.844;-1.062;2023-03-15T04:36:19;101759.44;;;4.37;66.57
65685;BME280;52405;50.844;-1.062;2023-03-15T04:38:45;101765.38;;;4.36;67.01
65685;BME280;52405;50.844;-1.062;2023-03-15T04:41:16;101759.09;;;4.32;66.45
65685;BME280;52405;50.844;-1.062;2023-03-15T04:43:47;101788.56;;;4.48;67.15
65685;BME280;52405;50.844;-1.062;2023-03-15T04:46:14;101783.84;;;4.42;66.83
65685;BME280;52405;50.844;-1.062;2023-03-15T04:48:40;101795.28;;;4.46;67.29
65685;BME280;52405;50.844;-1.062;2023-03-15T04:51:05;101791.56;;;4.42;66.37
65685;BME280;52405;50.844;-1.062;2023-03-15T04:53:31;101789.75;;;4.41;66.33
65685;BME280;52405;50.844;-1.062;2023-03-15T04:56:01;101809.56;;;4.42;67.37
65685;BME280;52405;50.844;-1.062;2023-03-15T04:58:27;101791.59;;;4.32;66.29
65685;BME280;52405;50.844;-1.062;2023-03-15T05:00:56;101799.56;;;4.35;67.29
65685;BME280;52405;50.844;-1.062;2023-03-15T05:03:22;101780.97;;;4.27;67.28
65685;BME280;52405;50.844;-1.062;2023-03-15T05:05:47;101795.22;;;4.34;67.33
65685;BME280;52405;50.844;-1.062;2023-03-15T05:08:13;101765.25;;;4.12;66.82
65685;BME280;52405;50.844;-1.062;2023-03-15T05:10:38;101790.25;;;4.25;66.45
65685;BME280;52405;50.844;-1.062;2023-03-15T05:13:03;101715.81;;;3.82;67.49
65685;BME280;52405;50.844;-1.062;2023-03-15T05:15:29;101798.31;;;4.30;66.62
65685;BME280;52405;50.844;-1.062;2023-03-15T05:17:57;101795.41;;;4.25;67.25
65685;BME280;52405;50.844;-1.062;2023-03-15T05:20:24;101795.63;;;4.28;67.68
65685;BME280;52405;50.844;-1.062;2023-03-15T05:22:52;101788.31;;;4.22;67.20
65685;BME280;52405;50.844;-1.062;2023-03-15T05:25:18;101799.75;;;4.26;67.71
65685;BME280;52405;50.844;-1.062;2023-03-15T05:27:43;101749.66;;;3.99;67.79
65685;BME280;52405;50.844;-1.062;2023-03-15T05:30:11;101759.63;;;4.06;67.18
65685;BME280;52405;50.844;-1.062;2023-03-15T05:32:37;101788.22;;;4.21;67.56
65685;BME280;52405;50.844;-1.062;2023-03-15T05:35:05;101802.59;;;4.19;67.43
65685;BME280;52405;50.844;-1.062;2023-03-15T05:37:34;101792.41;;;4.09;68.56
65685;BME280;52405;50.844;-1.062;2023-03-15T05:39:59;101809.19;;;4.15;68.02
65685;BME280;52405;50.844;-1.062;2023-03-15T05:42:25;101788.28;;;4.11;68.42
65685;BME280;52405;50.844;-1.062;2023-03-15T05:44:54;101809.13;;;4.25;67.44
65685;BME280;52405;50.844;-1.062;2023-03-15T05:47:20;101802.72;;;4.20;67.54
65685;BME280;52405;50.844;-1.062;2023-03-15T05:49:47;101774.28;;;4.07;67.56
65685;BME280;52405;50.844;-1.062;2023-03-15T05:52:13;101819.81;;;4.30;67.33
65685;BME280;52405;50.844;-1.062;2023-03-15T05:54:38;101833.91;;;4.35;68.34
65685;BME280;52405;50.844;-1.062;2023-03-15T05:57:04;101846.00;;;4.36;67.97
65685;BME280;52405;50.844;-1.062;2023-03-15T05:59:32;101851.13;;;4.36;67.21
65685;BME280;52405;50.844;-1.062;2023-03-15T06:01:57;101822.13;;;4.27;67.57
65685;BME280;52405;50.844;-1.062;2023-03-15T06:04:23;101838.81;;;4.32;67.12
65685;BME280;52405;50.844;-1.062;2023-03-15T06:06:52;101825.84;;;4.31;67.50
65685;BME280;52405;50.844;-1.062;2023-03-15T06:09:20;101831.94;;;4.43;67.67
65685;BME280;52405;50.844;-1.062;2023-03-15T06:11:45;101842.59;;;4.48;67.17
65685;BME280;52405;50.844;-1.062;2023-03-15T06:14:10;101830.38;;;4.45;67.47
65685;BME280;52405;50.844;-1.062;2023-03-15T06:16:36;101844.47;;;4.50;66.95
65685;BME280;52405;50.844;-1.062;2023-03-15T06:19:04;101845.63;;;4.54;66.95
65685;BME280;52405;50.844;-1.062;2023-03-15T06:21:32;101832.41;;;4.49;66.61
65685;BME280;52405;50.844;-1.062;2023-03-15T06:23:59;101852.91;;;4.59;66.73
65685;BME280;52405;50.844;-1.062;2023-03-15T06:26:29;101870.63;;;4.67;67.56
65685;BME280;52405;50.844;-1.062;2023-03-15T06:28:55;101851.91;;;4.57;67.47
65685;BME280;52405;50.844;-1.062;2023-03-15T06:31:23;101863.00;;;4.56;66.46
65685;BME280;52405;50.844;-1.062;2023-03-15T06:33:48;101846.84;;;4.47;66.35
65685;BME280;52405;50.844;-1.062;2023-03-15T06:36:13;101840.97;;;4.38;66.68
65685;BME280;52405;50.844;-1.062;2023-03-15T06:38:41;101843.13;;;4.43;68.08
65685;BME280;52405;50.844;-1.062;2023-03-15T06:41:07;101805.00;;;4.28;67.57
65685;BME280;52405;50.844;-1.062;2023-03-15T06:43:33;101876.41;;;4.74;67.45
65685;BME280;52405;50.844;-1.062;2023-03-15T06:45:58;101875.13;;;4.69;66.39
65685;BME280;52405;50.844;-1.062;2023-03-15T06:48:25;101881.44;;;4.73;66.60
65685;BME280;52405;50.844;-1.062;2023-03-15T06:50:51;101808.19;;;4.35;66.46
65685;BME280;52405;50.844;-1.062;2023-03-15T06:53:18;101829.31;;;4.53;66.58
65685;BME280;52405;50.844;-1.062;2023-03-15T06:55:48;101796.44;;;4.39;66.99
65685;BME280;52405;50.844;-1.062;2023-03-15T06:58:15;101877.69;;;4.91;66.95
65685;BME280;52405;50.844;-1.062;2023-03-15T07:00:40;101885.88;;;4.97;66.54
65685;BME280;52405;50.844;-1.062;2023-03-15T07:03:08;101889.47;;;4.99;66.87
65685;BME280;52405;50.844;-1.062;2023-03-15T07:05:33;101881.41;;;4.95;67.06
65685;BME280;52405;50.844;-1.062;2023-03-15T07:07:59;101895.53;;;5.00;66.30
65685;BME280;52405;50.844;-1.062;2023-03-15T07:10:24;101836.41;;;4.68;66.15
65685;BME280;52405;50.844;-1.062;2023-03-15T07:12:50;101908.75;;;5.05;67.30
65685;BME280;52405;50.844;-1.062;2023-03-15T07:15:15;101869.31;;;4.94;66.92
65685;BME280;52405;50.844;-1.062;2023-03-15T07:17:43;101906.94;;;5.26;67.06
65685;BME280;52405;50.844;-1.062;2023-03-15T07:20:11;101893.38;;;5.28;67.08
65685;BME280;52405;50.844;-1.062;2023-03-15T07:22:40;101871.06;;;5.17;67.10
65685;BME280;52405;50.844;-1.062;2023-03-15T07:25:06;101878.81;;;5.29;66.64
65685;BME280;52405;50.844;-1.062;2023-03-15T07:27:32;101918.63;;;5.56;66.78
65685;BME280;52405;50.844;-1.062;2023-03-15T07:29:57;101920.56;;;5.70;66.50
65685;BME280;52405;50.844;-1.062;2023-03-15T07:32:23;101913.63;;;5.81;66.36
65685;BME280;52405;50.844;-1.062;2023-03-15T07:34:48;101904.66;;;5.88;65.43
65685;BME280;52405;50.844;-1.062;2023-03-15T07:37:14;101919.41;;;6.12;65.98
65685;BME280;52405;50.844;-1.062;2023-03-15T07:39:41;101868.50;;;5.98;65.77
65685;BME280;52405;50.844;-1.062;2023-03-15T07:42:06;101899.16;;;6.30;65.34
65685;BME280;52405;50.844;-1.062;2023-03-15T07:44:32;101882.69;;;6.40;64.98
65685;BME280;52405;50.844;-1.062;2023-03-15T07:46:57;101909.75;;;6.70;65.72
65685;BME280;52405;50.844;-1.062;2023-03-15T07:49:23;101872.38;;;6.65;64.57
65685;BME280;52405;50.844;-1.062;2023-03-15T07:51:48;101913.69;;;7.02;64.65
65685;BME280;52405;50.844;-1.062;2023-03-15T07:54:16;101881.78;;;7.02;64.00
65685;BME280;52405;50.844;-1.062;2023-03-15T07:56:45;101858.53;;;7.02;64.05
65685;BME280;52405;50.844;-1.062;2023-03-15T07:59:11;101880.94;;;7.14;63.88
65685;BME280;52405;50.844;-1.062;2023-03-15T08:01:38;101913.03;;;7.43;63.50
65685;BME280;52405;50.844;-1.062;2023-03-15T08:04:06;101876.59;;;7.27;63.90
65685;BME280;52405;50.844;-1.062;2023-03-15T08:06:32;101861.09;;;7.27;63.55
65685;BME280;52405;50.844;-1.062;2023-03-15T08:08:59;101883.22;;;7.62;63.46
65685;BME280;52405;50.844;-1.062;2023-03-15T08:11:28;101912.59;;;7.89;62.78
65685;BME280;52405;50.844;-1.062;2023-03-15T08:13:54;101894.22;;;7.98;63.14
65685;BME280;52405;50.844;-1.062;2023-03-15T08:16:20;101881.38;;;8.13;62.54
65685;BME280;52405;50.844;-1.062;2023-03-15T08:18:45;101894.44;;;8.56;62.62
65685;BME280;52405;50.844;-1.062;2023-03-15T08:21:11;101905.28;;;8.77;61.55
65685;BME280;52405;50.844;-1.062;2023-03-15T08:23:36;101903.09;;;8.98;61.91
65685;BME280;52405;50.844;-1.062;2023-03-15T08:26:04;101862.81;;;9.03;61.40
65685;BME280;52405;50.844;-1.062;2023-03-15T08:28:31;101888.03;;;9.50;60.94
65685;BME280;52405;50.844;-1.062;2023-03-15T08:30:57;101872.75;;;9.70;60.48
65685;BME280;52405;50.844;-1.062;2023-03-15T08:33:22;101825.09;;;9.68;59.75
65685;BME280;52405;50.844;-1.062;2023-03-15T08:35:54;101848.28;;;9.96;59.37
65685;BME280;52405;50.844;-1.062;2023-03-15T08:38:20;101913.34;;;10.45;58.87
65685;BME280;52405;50.844;-1.062;2023-03-15T08:40:45;101879.44;;;10.58;58.72
65685;BME280;52405;50.844;-1.062;2023-03-15T08:43:11;101871.81;;;10.61;57.91
65685;BME280;52405;50.844;-1.062;2023-03-15T08:45:36;101861.59;;;10.65;57.30
65685;BME280;52405;50.844;-1.062;2023-03-15T08:48:02;101834.72;;;10.48;56.95
65685;BME280;52405;50.844;-1.062;2023-03-15T08:50:28;101883.47;;;10.85;55.70
65685;BME280;52405;50.844;-1.062;2023-03-15T08:52:55;101872.50;;;10.74;56.40
65685;BME280;52405;50.844;-1.062;2023-03-15T08:55:23;101894.97;;;10.90;56.52
65685;BME280;52405;50.844;-1.062;2023-03-15T08:57:48;101878.25;;;10.85;56.23
65685;BME280;52405;50.844;-1.062;2023-03-15T09:00:17;101889.63;;;10.87;55.67
65685;BME280;52405;50.844;-1.062;2023-03-15T09:02:48;101901.31;;;10.78;55.27
65685;BME280;52405;50.844;-1.062;2023-03-15T09:05:17;101885.69;;;10.62;55.92
65685;BME280;52405;50.844;-1.062;2023-03-15T09:07:43;101886.03;;;10.52;55.58
65685;BME280;52405;50.844;-1.062;2023-03-15T09:10:10;101873.72;;;10.33;55.64
65685;BME280;52405;50.844;-1.062;2023-03-15T09:12:51;101876.41;;;10.34;56.10
65685;BME280;52405;50.844;-1.062;2023-03-15T09:15:18;101912.38;;;10.43;55.73
65685;BME280;52405;50.844;-1.062;2023-03-15T09:17:43;101868.03;;;10.09;55.67
65685;BME280;52405;50.844;-1.062;2023-03-15T09:20:11;101904.34;;;10.38;55.92
65685;BME280;52405;50.844;-1.062;2023-03-15T09:22:49;101901.56;;;10.35;55.70
65685;BME280;52405;50.844;-1.062;2023-03-15T09:25:14;101902.88;;;10.44;55.91
65685;BME280;52405;50.844;-1.062;2023-03-15T09:27:42;101908.16;;;10.45;56.27
65685;BME280;52405;50.844;-1.062;2023-03-15T09:30:08;101912.00;;;10.52;55.98
65685;BME280;52405;50.844;-1.062;2023-03-15T09:32:36;101896.06;;;10.46;55.46
65685;BME280;52405;50.844;-1.062;2023-03-15T09:35:03;101884.78;;;10.45;56.32
65685;BME280;52405;50.844;-1.062;2023-03-15T09:37:28;101900.59;;;10.65;55.86
65685;BME280;52405;50.844;-1.062;2023-03-15T09:39:54;101879.63;;;10.61;55.69
65685;BME280;52405;50.844;-1.062;2023-03-15T09:42:27;101877.84;;;10.77;55.06
65685;BME280;52405;50.844;-1.062;2023-03-15T09:45:20;101911.06;;;10.99;54.87
65685;BME280;52405;50.844;-1.062;2023-03-15T09:48:03;101914.78;;;10.88;54.94
65685;BME280;52405;50.844;-1.062;2023-03-15T09:50:39;101909.50;;;10.86;55.46
65685;BME280;52405;50.844;-1.062;2023-03-15T09:53:13;101905.44;;;10.75;54.99
65685;BME280;52405;50.844;-1.062;2023-03-15T09:55:42;101857.28;;;10.49;55.22
65685;BME280;52405;50.844;-1.062;2023-03-15T09:58:12;101925.63;;;10.79;54.99
65685;BME280;52405;50.844;-1.062;2023-03-15T10:00:43;101909.00;;;10.77;55.16
65685;BME280;52405;50.844;-1.062;2023-03-15T10:03:25;101916.34;;;10.84;54.09
65685;BME280;52405;50.844;-1.062;2023-03-15T10:05:56;101927.66;;;10.85;53.87
65685;BME280;52405;50.844;-1.062;2023-03-15T10:08:23;101916.00;;;10.78;54.17
65685;BME280;52405;50.844;-1.062;2023-03-15T10:11:06;101929.97;;;10.80;54.49
65685;BME280;52405;50.844;-1.062;2023-03-15T10:16:31;101932.91;;;10.70;54.52
65685;BME280;52405;50.844;-1.062;2023-03-15T10:19:04;101935.50;;;10.70;54.42
65685;BME280;52405;50.844;-1.062;2023-03-15T10:24:32;101936.31;;;10.69;53.92
65685;BME280;52405;50.844;-1.062;2023-03-15T10:27:08;101923.00;;;10.63;54.80
65685;BME280;52405;50.844;-1.062;2023-03-15T10:29:38;101916.09;;;10.63;54.39
65685;BME280;52405;50.844;-1.062;2023-03-15T10:32:14;101935.09;;;10.78;54.77
65685;BME280;52405;50.844;-1.062;2023-03-15T10:34:43;101934.78;;;10.89;54.47
65685;BME280;52405;50.844;-1.062;2023-03-15T10:37:14;101895.97;;;10.75;53.91
65685;BME280;52405;50.844;-1.062;2023-03-15T10:39:40;101934.41;;;10.97;53.80
65685;BME280;52405;50.844;-1.062;2023-03-15T10:42:31;101929.19;;;10.97;53.19
65685;BME280;52405;50.844;-1.062;2023-03-15T10:44:58;101919.78;;;10.99;54.27
65685;BME280;52405;50.844;-1.062;2023-03-15T10:47:41;101919.91;;;11.03;54.17
65685;BME280;52405;50.844;-1.062;2023-03-15T10:50:09;101922.19;;;11.13;54.21
65685;BME280;52405;50.844;-1.062;2023-03-15T10:52:44;101918.06;;;11.16;53.82
65685;BME280;52405;50.844;-1.062;2023-03-15T10:55:14;101928.94;;;11.26;53.57
65685;BME280;52405;50.844;-1.062;2023-03-15T10:57:50;101920.38;;;11.28;53.16
65685;BME280;52405;50.844;-1.062;2023-03-15T11:00:29;101925.19;;;11.37;52.82
65685;BME280;52405;50.844;-1.062;2023-03-15T11:03:23;101925.56;;;11.45;53.00
65685;BME280;52405;50.844;-1.062;2023-03-15T11:05:51;101921.91;;;11.41;53.04
65685;BME280;52405;50.844;-1.062;2023-03-15T11:08:19;101912.66;;;11.30;53.45
65685;BME280;52405;50.844;-1.062;2023-03-15T11:10:53;101875.56;;;10.99;53.01
65685;BME280;52405;50.844;-1.062;2023-03-15T11:13:28;101923.25;;;11.16;53.65
65685;BME280;52405;50.844;-1.062;2023-03-15T11:18:54;101911.97;;;11.16;53.28
65685;BME280;52405;50.844;-1.062;2023-03-15T11:21:24;101887.03;;;11.03;53.53
65685;BME280;52405;50.844;-1.062;2023-03-15T11:23:54;101909.50;;;11.19;53.01
65685;BME280;52405;50.844;-1.062;2023-03-15T11:26:27;101911.03;;;11.32;53.48
65685;BME280;52405;50.844;-1.062;2023-03-15T11:29:20;101890.41;;;11.35;53.45
65685;BME280;52405;50.844;-1.062;2023-03-15T11:31:45;101912.81;;;11.49;52.71
65685;BME280;52405;50.844;-1.062;2023-03-15T11:36:44;101895.75;;;11.38;53.39
65685;BME280;52405;50.844;-1.062;2023-03-15T11:39:18;101926.44;;;11.62;53.21
65685;BME280;52405;50.844;-1.062;2023-03-15T11:41:55;101916.94;;;11.62;53.00
65685;BME280;52405;50.844;-1.062;2023-03-15T11:44:32;101918.69;;;11.63;53.29
65685;BME280;52405;50.844;-1.062;2023-03-15T11:49:55;101922.94;;;11.61;53.34
65685;BME280;52405;50.844;-1.062;2023-03-15T11:52:24;101920.31;;;11.61;53.54
65685;BME280;52405;50.844;-1.062;2023-03-15T11:54:53;101895.66;;;11.53;53.45
65685;BME280;52405;50.844;-1.062;2023-03-15T12:02:51;101911.97;;;11.50;53.95
65685;BME280;52405;50.844;-1.062;2023-03-15T12:06:32;101911.84;;;11.47;53.46
65685;BME280;52405;50.844;-1.062;2023-03-15T12:08:50;101906.38;;;11.43;53.12
65685;BME280;52405;50.844;-1.062;2023-03-15T12:16:24;101903.06;;;11.45;53.66
65685;BME280;52405;50.844;-1.062;2023-03-15T12:18:50;101887.47;;;11.45;54.19
65685;BME280;52405;50.844;-1.062;2023-03-15T12:21:23;101878.91;;;11.48;53.51
65685;BME280;52405;50.844;-1.062;2023-03-15T12:24:02;101887.34;;;11.60;53.79
65685;BME280;52405;50.844;-1.062;2023-03-15T12:26:42;101882.22;;;11.62;53.27
65685;BME280;52405;50.844;-1.062;2023-03-15T12:29:16;101866.34;;;11.57;53.51
65685;BME280;52405;50.844;-1.062;2023-03-15T12:31:55;101828.34;;;11.43;53.64
65685;BME280;52405;50.844;-1.062;2023-03-15T12:37:04;101868.47;;;11.82;53.34
65685;BME280;52405;50.844;-1.062;2023-03-15T12:39:42;101863.34;;;11.84;52.97
65685;BME280;52405;50.844;-1.062;2023-03-15T12:50:43;101862.25;;;11.97;52.92
65685;BME280;52405;50.844;-1.062;2023-03-15T12:55:50;101860.91;;;12.05;52.67
65685;BME280;52405;50.844;-1.062;2023-03-15T12:58:19;101851.28;;;12.04;52.99
65685;BME280;52405;50.844;-1.062;2023-03-15T13:00:46;101846.84;;;12.01;52.67
65685;BME280;52405;50.844;-1.062;2023-03-15T13:03:19;101846.03;;;12.02;53.25
65685;BME280;52405;50.844;-1.062;2023-03-15T13:05:58;101851.72;;;12.13;52.97
65685;BME280;52405;50.844;-1.062;2023-03-15T13:08:32;101854.13;;;12.08;52.84
65685;BME280;52405;50.844;-1.062;2023-03-15T13:17:46;101810.47;;;12.03;53.29
65685;BME280;52405;50.844;-1.062;2023-03-15T13:23:14;101829.75;;;12.26;53.50
65685;BME280;52405;50.844;-1.062;2023-03-15T13:28:48;101798.25;;;12.02;53.88
65685;BME280;52405;50.844;-1.062;2023-03-15T13:31:22;101802.66;;;12.03;54.05
65685;BME280;52405;50.844;-1.062;2023-03-15T13:33:51;101806.91;;;12.01;54.62
65685;BME280;52405;50.844;-1.062;2023-03-15T13:36:37;101788.38;;;11.94;53.91
65685;BME280;52405;50.844;-1.062;2023-03-15T13:39:10;101794.69;;;12.00;55.12
65685;BME280;52405;50.844;-1.062;2023-03-15T13:41:40;101769.25;;;11.76;54.69
65685;BME280;52405;50.844;-1.062;2023-03-15T13:44:15;101794.81;;;11.85;54.72
65685;BME280;52405;50.844;-1.062;2023-03-15T13:46:41;101776.16;;;11.75;55.50
65685;BME280;52405;50.844;-1.062;2023-03-15T13:49:10;101770.88;;;11.74;55.45
65685;BME280;52405;50.844;-1.062;2023-03-15T13:51:38;101770.22;;;11.78;55.23